Time;durP1;ratioP1;P1;durP2;ratioP2;P2;SDS_P1;SDS_P2;PMS_P1;PMS_P2;Temp;Humidity;BMP_temperature;BMP_pressure;BME280_temperature;BME280_humidity;BME280_pressure;Samples;Min_cycle;Max_cycle;Signal;HPM_P1;HPM_P2
2022/05/07 00:01:56;;;;;;;11.32;6.70;;;;;;;;;;5021620;28;20041;-69
2022/05/07 00:04:21;;;;;;;10.00;6.07;;;;;;;;;;5021623;28;20108;-68
2022/05/07 00:06:46;;;;;;;10.65;6.13;;;;;;;;;;5005906;28;20088;-69
2022/05/07 00:09:12;;;;;;;12.00;6.63;;;;;;;;;;4990754;28;20134;-69
2022/05/07 00:11:37;;;;;;;11.43;5.75;;;;;;;;;;5002328;28;20048;-69
2022/05/07 00:14:02;;;;;;;9.93;5.40;;;;;;;;;;5002653;28;20052;-69
2022/05/07 00:19:11;;;;;;;;;;;;;;;;;;4999486;28;20118;-68
2022/05/07 00:21:37;;;;;;;10.75;4.10;;;;;;;;;;5002240;28;20008;-68
2022/05/07 00:24:03;;;;;;;6.97;4.70;;;;;;;;;;5005524;28;20037;-68
2022/05/07 00:26:29;;;;;;;7.35;4.10;;;;;;;;;;4998602;28;20573;-69
2022/05/07 00:28:54;;;;;;;7.03;4.32;;;;;;;;;;4997857;28;20053;-69
2022/05/07 00:31:20;;;;;;;8.65;3.88;;;;;;;;;;5004697;28;20037;-69
2022/05/07 00:33:45;;;;;;;6.30;3.67;;;;;;;;;;5002452;28;20034;-68
2022/05/07 00:36:11;;;;;;;6.47;3.63;;;;;;;;;;5002246;28;20505;-68
2022/05/07 00:38:36;;;;;;;8.52;3.40;;;;;;;;;;5005202;28;20052;-69
2022/05/07 00:41:01;;;;;;;5.55;3.50;;;;;;;;;;5005977;28;20573;-69
2022/05/07 00:43:38;;;;;;;8.43;3.97;;;;;;;;;;4999904;28;20034;-68
2022/05/07 00:46:04;;;;;;;9.18;3.90;;;;;;;;;;5006573;28;20057;-69
2022/05/07 00:48:30;;;;;;;9.55;3.60;;;;;;;;;;5000274;28;20084;-69
2022/05/07 00:53:40;;;;;;;5.68;3.30;;;;;;;;;;5010117;28;20041;-69
2022/05/07 00:56:07;;;;;;;7.10;3.28;;;;;;;;;;5010237;28;20073;-69
2022/05/07 00:58:34;;;;;;;4.93;3.20;;;;;;;;;;5010261;28;20072;-69
2022/05/07 01:00:59;;;;;;;8.20;3.45;;;;;;;;;;5007164;28;20454;-68
2022/05/07 01:03:25;;;;;;;8.77;3.72;;;;;;;;;;5006717;28;20045;-68
2022/05/07 01:05:50;;;;;;;6.10;3.47;;;;;;;;;;5009489;28;20129;-68
2022/05/07 01:08:17;;;;;;;10.10;3.83;;;;;;;;;;5009518;28;20053;-68
2022/05/07 01:10:42;;;;;;;6.18;3.30;;;;;;;;;;5007767;28;20578;-69
2022/05/07 01:13:08;;;;;;;6.93;3.30;;;;;;;;;;5006198;28;20475;-69
2022/05/07 01:15:44;;;;;;;8.05;3.30;;;;;;;;;;5009646;28;20087;-69
2022/05/07 01:18:15;;;;;;;7.78;3.63;;;;;;;;;;5021383;28;20046;-69
2022/05/07 01:20:40;;;;;;;8.77;3.83;;;;;;;;;;5010090;28;20419;-69
2022/05/07 01:23:06;;;;;;;7.25;3.58;;;;;;;;;;5009404;28;20539;-69
2022/05/07 01:25:32;;;;;;;9.65;3.80;;;;;;;;;;5005975;28;20370;-69
2022/05/07 01:27:57;;;;;;;6.40;3.53;;;;;;;;;;5008391;28;20042;-69
2022/05/07 01:30:24;;;;;;;8.65;3.95;;;;;;;;;;5009412;28;20052;-69
2022/05/07 01:32:49;;;;;;;5.18;3.20;;;;;;;;;;5008110;28;20037;-69
2022/05/07 01:35:14;;;;;;;9.15;3.63;;;;;;;;;;4998712;28;20046;-69
2022/05/07 01:37:40;;;;;;;6.57;3.53;;;;;;;;;;4994731;28;20042;-69
2022/05/07 01:40:06;;;;;;;5.97;3.53;;;;;;;;;;5006686;28;20033;-68
2022/05/07 01:42:31;;;;;;;8.98;3.95;;;;;;;;;;5009189;28;20034;-68
2022/05/07 01:44:56;;;;;;;6.65;4.00;;;;;;;;;;5009728;28;20042;-69
2022/05/07 01:50:06;;;;;;;7.53;4.07;;;;;;;;;;5009309;28;20132;-68
2022/05/07 01:52:32;;;;;;;8.93;4.05;;;;;;;;;;5008431;28;20067;-68
2022/05/07 01:54:57;;;;;;;7.65;4.38;;;;;;;;;;5008255;28;20029;-69
2022/05/07 01:57:22;;;;;;;9.50;4.32;;;;;;;;;;5008599;28;20522;-69
2022/05/07 01:59:48;;;;;;;9.05;4.55;;;;;;;;;;5008722;28;20038;-69
2022/05/07 02:02:13;;;;;;;8.70;4.32;;;;;;;;;;5006382;28;20062;-68
2022/05/07 02:04:39;;;;;;;7.05;3.90;;;;;;;;;;5007439;28;20169;-68
2022/05/07 02:07:04;;;;;;;7.45;3.92;;;;;;;;;;5008597;28;20116;-68
2022/05/07 02:09:30;;;;;;;9.50;4.55;;;;;;;;;;5000091;28;20046;-69
2022/05/07 02:11:56;;;;;;;10.73;4.25;;;;;;;;;;5003096;28;20034;-68
2022/05/07 02:14:21;;;;;;;7.88;4.25;;;;;;;;;;4998513;28;20049;-69
2022/05/07 02:16:46;;;;;;;7.78;3.88;;;;;;;;;;5007442;28;20469;-68
2022/05/07 02:19:12;;;;;;;7.53;4.15;;;;;;;;;;5002348;28;20038;-68
2022/05/07 02:21:37;;;;;;;8.23;4.10;;;;;;;;;;5007740;28;20037;-68
2022/05/07 02:24:02;;;;;;;9.32;4.35;;;;;;;;;;4995404;28;20073;-68
2022/05/07 02:26:28;;;;;;;7.15;3.63;;;;;;;;;;4997532;28;20045;-69
2022/05/07 02:28:54;;;;;;;8.75;3.83;;;;;;;;;;4998006;28;20058;-69
2022/05/07 02:31:19;;;;;;;6.15;3.85;;;;;;;;;;5021684;28;20034;-68
2022/05/07 02:33:44;;;;;;;10.05;4.25;;;;;;;;;;5010335;28;20344;-69
2022/05/07 02:36:10;;;;;;;9.25;4.47;;;;;;;;;;5009716;28;20034;-68
2022/05/07 02:38:38;;;;;;;7.95;4.10;;;;;;;;;;5007738;28;20475;-69
2022/05/07 02:43:48;;;;;;;8.13;4.60;;;;;;;;;;5007016;28;20083;-69
2022/05/07 02:46:13;;;;;;;12.52;5.13;;;;;;;;;;4999035;28;20030;-68
2022/05/07 02:48:38;;;;;;;15.38;4.97;;;;;;;;;;4997862;28;20049;-68
2022/05/07 02:51:04;;;;;;;8.82;4.68;;;;;;;;;;4996504;28;20049;-68
2022/05/07 02:53:29;;;;;;;14.20;6.13;;;;;;;;;;5024302;28;20060;-69
2022/05/07 02:55:54;;;;;;;15.85;5.90;;;;;;;;;;5009320;28;20030;-68
2022/05/07 02:58:20;;;;;;;13.52;5.60;;;;;;;;;;5009083;28;20029;-68
2022/05/07 03:00:46;;;;;;;14.25;5.95;;;;;;;;;;5009904;28;20053;-68
2022/05/07 03:03:11;;;;;;;12.25;5.88;;;;;;;;;;5006781;28;20049;-69
2022/05/07 03:05:36;;;;;;;12.00;5.38;;;;;;;;;;5009244;28;20053;-68
2022/05/07 03:08:02;;;;;;;14.32;6.80;;;;;;;;;;5004076;28;20034;-69
2022/05/07 03:10:27;;;;;;;17.25;6.57;;;;;;;;;;5004903;28;20076;-68
2022/05/07 03:12:53;;;;;;;16.83;6.50;;;;;;;;;;5001150;28;20458;-69
2022/05/07 03:15:18;;;;;;;13.90;6.80;;;;;;;;;;5006205;28;20065;-68
2022/05/07 03:17:44;;;;;;;14.80;5.90;;;;;;;;;;5003927;28;20130;-68
2022/05/07 03:20:12;;;;;;;17.85;7.35;;;;;;;;;;5007607;28;20056;-68
2022/05/07 03:22:39;;;;;;;13.13;6.18;;;;;;;;;;5000772;28;20029;-68
2022/05/07 03:25:05;;;;;;;15.20;7.05;;;;;;;;;;5002998;28;20072;-69
2022/05/07 03:27:32;;;;;;;13.55;6.30;;;;;;;;;;5000854;28;20049;-68
2022/05/07 03:29:57;;;;;;;16.65;6.50;;;;;;;;;;5005756;28;20054;-69
2022/05/07 03:32:23;;;;;;;17.35;6.43;;;;;;;;;;4994860;28;20065;-68
2022/05/07 03:34:48;;;;;;;13.90;5.68;;;;;;;;;;5021564;28;20096;-68
2022/05/07 03:37:14;;;;;;;13.55;6.18;;;;;;;;;;5005484;28;20022;-68
2022/05/07 03:39:41;;;;;;;12.65;5.78;;;;;;;;;;5007272;28;20030;-69
2022/05/07 03:42:06;;;;;;;11.90;5.38;;;;;;;;;;5001459;28;20030;-68
2022/05/07 03:44:31;;;;;;;18.00;6.18;;;;;;;;;;5007996;28;20458;-68
2022/05/07 03:46:57;;;;;;;9.88;4.68;;;;;;;;;;4999892;28;20036;-68
2022/05/07 03:49:22;;;;;;;8.13;4.35;;;;;;;;;;5007792;28;20243;-68
2022/05/07 03:54:31;;;;;;;8.70;4.60;;;;;;;;;;4997326;28;20045;-68
2022/05/07 03:56:57;;;;;;;11.15;4.95;;;;;;;;;;5007979;28;20025;-68
2022/05/07 03:59:22;;;;;;;9.63;5.10;;;;;;;;;;5007529;28;20260;-68
2022/05/07 04:01:48;;;;;;;9.82;4.82;;;;;;;;;;5004090;28;20068;-69
2022/05/07 04:04:13;;;;;;;10.35;5.10;;;;;;;;;;4999298;28;20034;-68
2022/05/07 04:06:38;;;;;;;11.52;6.13;;;;;;;;;;5007772;28;20029;-68
2022/05/07 04:09:03;;;;;;;9.02;4.63;;;;;;;;;;5006033;28;20113;-69
2022/05/07 04:11:29;;;;;;;10.50;5.22;;;;;;;;;;5007086;28;20096;-68
2022/05/07 04:13:54;;;;;;;10.85;5.20;;;;;;;;;;5007683;28;20040;-69
2022/05/07 04:16:19;;;;;;;9.02;5.05;;;;;;;;;;5006093;28;20029;-68
2022/05/07 04:18:45;;;;;;;10.60;5.47;;;;;;;;;;4997774;28;20018;-69
2022/05/07 04:21:10;;;;;;;10.68;5.03;;;;;;;;;;5003918;28;20120;-69
2022/05/07 04:23:35;;;;;;;10.82;5.18;;;;;;;;;;5005994;28;20033;-69
2022/05/07 04:26:01;;;;;;;12.18;5.80;;;;;;;;;;5002790;28;20044;-69
2022/05/07 04:28:26;;;;;;;14.15;6.57;;;;;;;;;;5007148;28;20410;-69
2022/05/07 04:30:51;;;;;;;12.30;5.78;;;;;;;;;;5004088;28;20037;-68
2022/05/07 04:33:17;;;;;;;10.65;5.10;;;;;;;;;;5016436;28;20073;-69
2022/05/07 04:35:42;;;;;;;11.90;5.88;;;;;;;;;;4992832;28;20148;-68
2022/05/07 04:38:07;;;;;;;14.60;6.47;;;;;;;;;;5020442;28;20087;-69
2022/05/07 04:40:33;;;;;;;11.13;5.40;;;;;;;;;;5006926;28;20072;-68
2022/05/07 04:42:58;;;;;;;14.75;5.90;;;;;;;;;;5008116;28;20032;-69
2022/05/07 04:45:25;;;;;;;14.82;5.97;;;;;;;;;;5005962;28;20034;-69
2022/05/07 04:47:51;;;;;;;12.80;5.40;;;;;;;;;;4993544;28;20041;-69
2022/05/07 04:50:16;;;;;;;14.68;6.25;;;;;;;;;;4989977;28;20042;-68
2022/05/07 04:52:42;;;;;;;13.82;6.38;;;;;;;;;;5002981;28;20121;-68
2022/05/07 04:55:07;;;;;;;13.02;6.13;;;;;;;;;;5003434;28;20033;-69
2022/05/07 04:57:32;;;;;;;13.88;6.63;;;;;;;;;;5002953;28;20036;-69
2022/05/07 04:59:59;;;;;;;13.45;6.13;;;;;;;;;;5002275;28;20129;-68
2022/05/07 05:02:25;;;;;;;14.40;6.78;;;;;;;;;;4996919;28;20125;-69
2022/05/07 05:04:50;;;;;;;14.80;6.30;;;;;;;;;;5003982;28;20494;-69
2022/05/07 05:07:16;;;;;;;11.80;6.45;;;;;;;;;;5006382;28;20034;-69
2022/05/07 05:09:41;;;;;;;13.50;6.57;;;;;;;;;;5007118;28;20033;-68
2022/05/07 05:12:07;;;;;;;15.60;6.95;;;;;;;;;;5004533;28;20081;-68
2022/05/07 05:17:16;;;;;;;16.60;7.32;;;;;;;;;;4999594;28;20036;-69
2022/05/07 05:19:42;;;;;;;16.73;7.35;;;;;;;;;;5006700;28;20105;-68
2022/05/07 05:22:07;;;;;;;17.38;7.55;;;;;;;;;;5003941;28;20069;-69
2022/05/07 05:24:32;;;;;;;17.77;7.60;;;;;;;;;;4993879;28;20046;-69
2022/05/07 05:26:58;;;;;;;19.02;8.00;;;;;;;;;;5003005;28;20054;-69
2022/05/07 05:29:23;;;;;;;21.25;8.23;;;;;;;;;;5005645;28;20091;-69
2022/05/07 05:31:49;;;;;;;14.98;7.20;;;;;;;;;;5006636;28;20049;-69
2022/05/07 05:34:14;;;;;;;19.67;8.48;;;;;;;;;;5006604;28;20032;-69
2022/05/07 05:36:40;;;;;;;20.90;8.70;;;;;;;;;;5007252;28;20084;-69
2022/05/07 05:39:07;;;;;;;20.63;8.02;;;;;;;;;;5009050;28;20038;-69
2022/05/07 05:41:33;;;;;;;21.20;8.77;;;;;;;;;;5006525;28;20184;-68
2022/05/07 05:43:59;;;;;;;22.63;9.50;;;;;;;;;;5006976;28;20716;-69
2022/05/07 05:46:24;;;;;;;17.05;8.10;;;;;;;;;;4998969;28;20064;-68
2022/05/07 05:48:50;;;;;;;20.15;9.48;;;;;;;;;;5010409;28;20032;-69
2022/05/07 05:51:15;;;;;;;19.25;9.98;;;;;;;;;;5009334;28;20030;-69
2022/05/07 05:53:40;;;;;;;22.10;9.38;;;;;;;;;;5001125;28;20049;-69
2022/05/07 05:56:06;;;;;;;20.13;9.38;;;;;;;;;;4984038;28;20053;-68
2022/05/07 05:58:35;;;;;;;21.83;9.07;;;;;;;;;;5002896;28;20025;-69
2022/05/07 06:01:01;;;;;;;19.23;9.20;;;;;;;;;;5006294;28;20026;-68
2022/05/07 06:03:26;;;;;;;19.60;9.45;;;;;;;;;;5008022;28;20065;-69
2022/05/07 06:05:52;;;;;;;28.10;10.07;;;;;;;;;;4995460;28;20426;-69
2022/05/07 06:08:17;;;;;;;19.65;9.45;;;;;;;;;;5009336;28;20038;-68
2022/05/07 06:10:42;;;;;;;21.42;9.45;;;;;;;;;;5007402;28;20056;-69
2022/05/07 06:13:08;;;;;;;23.95;9.82;;;;;;;;;;5007544;28;20378;-69
2022/05/07 06:15:33;;;;;;;26.25;10.38;;;;;;;;;;5007005;28;20037;-69
2022/05/07 06:17:58;;;;;;;19.98;9.50;;;;;;;;;;5022155;28;20030;-69
2022/05/07 06:20:24;;;;;;;22.90;9.88;;;;;;;;;;5008508;28;20085;-69
2022/05/07 06:22:49;;;;;;;23.77;10.13;;;;;;;;;;5007454;28;20125;-69
2022/05/07 06:28:01;;;;;;;18.40;9.40;;;;;;;;;;5008375;28;20570;-69
2022/05/07 06:30:26;;;;;;;26.80;10.60;;;;;;;;;;5003472;28;20061;-69
2022/05/07 06:32:52;;;;;;;23.92;10.57;;;;;;;;;;5003091;28;20688;-69
2022/05/07 06:35:17;;;;;;;23.75;10.68;;;;;;;;;;5022796;28;20091;-70
2022/05/07 06:37:48;;;;;;;27.10;11.27;;;;;;;;;;5007280;28;20029;-70
2022/05/07 06:40:13;;;;;;;23.92;10.45;;;;;;;;;;5007111;28;20033;-68
2022/05/07 06:42:40;;;;;;;26.33;11.45;;;;;;;;;;5006388;28;20046;-67
2022/05/07 06:45:05;;;;;;;24.90;11.05;;;;;;;;;;5003824;28;20507;-67
2022/05/07 06:47:31;;;;;;;25.65;11.40;;;;;;;;;;5003784;28;20045;-68
2022/05/07 06:49:56;;;;;;;26.15;11.20;;;;;;;;;;5006260;28;20089;-67
2022/05/07 06:52:22;;;;;;;23.67;11.32;;;;;;;;;;5008023;28;20037;-67
2022/05/07 06:54:47;;;;;;;28.65;12.13;;;;;;;;;;5004305;28;20037;-68
2022/05/07 06:57:12;;;;;;;25.17;10.65;;;;;;;;;;5005363;28;20034;-68
2022/05/07 06:59:38;;;;;;;30.95;12.55;;;;;;;;;;5007963;28;20466;-68
2022/05/07 07:02:03;;;;;;;26.48;11.52;;;;;;;;;;5007452;28;20128;-68
2022/05/07 07:04:29;;;;;;;28.35;11.52;;;;;;;;;;5007300;28;20190;-68
2022/05/07 07:06:55;;;;;;;26.38;11.63;;;;;;;;;;5007535;28;20046;-68
2022/05/07 07:09:20;;;;;;;28.23;12.23;;;;;;;;;;5006137;28;20049;-69
2022/05/07 07:11:46;;;;;;;28.38;11.82;;;;;;;;;;5008328;28;20414;-67
2022/05/07 07:14:12;;;;;;;30.23;13.13;;;;;;;;;;5006527;28;20073;-68
2022/05/07 07:16:37;;;;;;;27.42;11.18;;;;;;;;;;5006308;28;20030;-68
2022/05/07 07:19:04;;;;;;;27.80;12.65;;;;;;;;;;5005694;28;20076;-68
2022/05/07 07:21:29;;;;;;;27.15;12.38;;;;;;;;;;5003816;28;20038;-67
2022/05/07 07:23:55;;;;;;;28.98;12.50;;;;;;;;;;5007559;28;20117;-67
2022/05/07 07:26:20;;;;;;;23.67;12.18;;;;;;;;;;5005884;28;20061;-68
2022/05/07 07:28:46;;;;;;;27.83;12.80;;;;;;;;;;5005377;28;20060;-68
2022/05/07 07:31:12;;;;;;;32.42;13.45;;;;;;;;;;5004972;28;20037;-68
2022/05/07 07:33:38;;;;;;;25.80;12.15;;;;;;;;;;5006946;28;20042;-69
2022/05/07 07:36:05;;;;;;;27.98;12.07;;;;;;;;;;5002857;28;20046;-70
2022/05/07 07:38:30;;;;;;;26.90;12.45;;;;;;;;;;5006928;28;20108;-70
2022/05/07 07:40:55;;;;;;;26.00;11.95;;;;;;;;;;4999793;28;20360;-69
2022/05/07 07:43:21;;;;;;;29.95;12.88;;;;;;;;;;5004618;28;20456;-70
2022/05/07 07:48:31;;;;;;;34.97;13.07;;;;;;;;;;5005577;28;20053;-70
2022/05/07 07:50:56;;;;;;;32.88;14.32;;;;;;;;;;5004689;28;20034;-70
2022/05/07 07:53:23;;;;;;;30.42;13.73;;;;;;;;;;5006572;28;20415;-70
2022/05/07 07:55:49;;;;;;;37.55;13.63;;;;;;;;;;5005173;28;20116;-70
2022/05/07 07:58:14;;;;;;;32.05;13.18;;;;;;;;;;5005286;28;20116;-71
2022/05/07 08:00:42;;;;;;;29.48;13.05;;;;;;;;;;5007819;28;20125;-70
2022/05/07 08:03:13;;;;;;;29.58;13.82;;;;;;;;;;4995814;28;20088;-69
2022/05/07 08:05:40;;;;;;;27.27;11.88;;;;;;;;;;4997784;28;20594;-70
2022/05/07 08:13:36;;;;;;;35.72;13.90;;;;;;;;;;4999804;28;20580;-70
2022/05/07 08:16:02;;;;;;;32.60;12.77;;;;;;;;;;5002999;28;20104;-70
2022/05/07 08:18:28;;;;;;;30.33;12.45;;;;;;;;;;5004173;28;20030;-70
2022/05/07 08:20:54;;;;;;;31.63;13.63;;;;;;;;;;5007153;28;20478;-70
2022/05/07 08:23:19;;;;;;;24.67;12.32;;;;;;;;;;5002216;28;20113;-70
2022/05/07 08:25:45;;;;;;;29.80;12.52;;;;;;;;;;5006413;28;20022;-70
2022/05/07 08:28:10;;;;;;;28.95;12.60;;;;;;;;;;4999393;28;20176;-70
2022/05/07 08:30:36;;;;;;;29.92;13.55;;;;;;;;;;5002091;28;20116;-70
2022/05/07 08:33:03;;;;;;;31.52;13.13;;;;;;;;;;5007339;28;20030;-70
2022/05/07 08:35:29;;;;;;;31.73;13.00;;;;;;;;;;5006526;28;20053;-71
2022/05/07 08:37:54;;;;;;;30.00;12.73;;;;;;;;;;5007438;28;20046;-70
2022/05/07 08:40:20;;;;;;;27.02;12.45;;;;;;;;;;5005197;28;20030;-70
2022/05/07 08:42:46;;;;;;;30.50;12.60;;;;;;;;;;4997608;28;20035;-70
2022/05/07 08:45:14;;;;;;;28.73;12.48;;;;;;;;;;5006111;28;20037;-70
2022/05/07 08:47:43;;;;;;;33.85;13.05;;;;;;;;;;5006833;28;20042;-70
2022/05/07 08:50:11;;;;;;;30.85;12.55;;;;;;;;;;5005997;28;20045;-70
2022/05/07 08:52:42;;;;;;;33.72;12.52;;;;;;;;;;5005864;28;20034;-71
2022/05/07 08:55:16;;;;;;;26.45;11.82;;;;;;;;;;5003687;28;20061;-70
2022/05/07 08:57:44;;;;;;;24.55;11.75;;;;;;;;;;5019516;28;20060;-71
2022/05/07 09:00:10;;;;;;;29.45;13.40;;;;;;;;;;5005584;28;20026;-70
2022/05/07 09:02:45;;;;;;;29.60;14.00;;;;;;;;;;5005967;28;20577;-70
2022/05/07 09:05:11;;;;;;;28.52;12.60;;;;;;;;;;4998508;28;20074;-70
2022/05/07 09:07:39;;;;;;;28.58;13.85;;;;;;;;;;5019158;28;20509;-71
2022/05/07 09:10:13;;;;;;;29.40;12.85;;;;;;;;;;4998416;28;20033;-71
2022/05/07 09:12:39;;;;;;;26.35;12.88;;;;;;;;;;5011330;28;20048;-71
2022/05/07 09:15:08;;;;;;;28.98;13.27;;;;;;;;;;5007069;28;20047;-71
2022/05/07 09:17:34;;;;;;;34.10;13.50;;;;;;;;;;5010752;28;20721;-71
2022/05/07 09:20:16;;;;;;;29.58;12.80;;;;;;;;;;5004408;28;20041;-71
2022/05/07 09:22:55;;;;;;;25.73;13.30;;;;;;;;;;5004692;28;20026;-71
2022/05/07 09:25:25;;;;;;;26.50;13.40;;;;;;;;;;5005357;28;20050;-71
2022/05/07 09:27:54;;;;;;;28.42;13.63;;;;;;;;;;5004229;28;20041;-71
2022/05/07 09:30:27;;;;;;;27.00;13.68;;;;;;;;;;5006090;28;20534;-71
2022/05/07 09:32:54;;;;;;;27.73;13.30;;;;;;;;;;5025355;28;20030;-71
2022/05/07 09:38:09;;;;;;;23.02;12.48;;;;;;;;;;5003612;28;20036;-71
2022/05/07 09:40:39;;;;;;;25.85;12.07;;;;;;;;;;5009842;28;20104;-71
2022/05/07 09:43:06;;;;;;;25.73;12.02;;;;;;;;;;5008834;28;20529;-71
2022/05/07 09:45:32;;;;;;;29.38;13.07;;;;;;;;;;5003897;28;20104;-71
2022/05/07 09:48:00;;;;;;;25.65;12.43;;;;;;;;;;5006123;28;20507;-71
2022/05/07 09:50:44;;;;;;;29.73;13.40;;;;;;;;;;5002610;28;20126;-71
2022/05/07 09:58:43;;;;;;;21.65;10.57;;;;;;;;;;5009073;28;20112;-72
2022/05/07 10:01:20;;;;;;;25.88;13.55;;;;;;;;;;5009767;28;20443;-71
2022/05/07 10:04:04;;;;;;;26.92;13.27;;;;;;;;;;5009311;28;20147;-72
2022/05/07 10:06:38;;;;;;;24.02;12.63;;;;;;;;;;5005533;28;20042;-72
2022/05/07 10:09:07;;;;;;;23.70;12.50;;;;;;;;;;5001592;28;20408;-71
2022/05/07 10:11:33;;;;;;;27.20;13.75;;;;;;;;;;5010009;28;20067;-71
2022/05/07 10:13:58;;;;;;;28.15;13.02;;;;;;;;;;5024923;28;20041;-72
2022/05/07 10:16:29;;;;;;;26.33;12.57;;;;;;;;;;5004325;28;20025;-72
2022/05/07 10:18:55;;;;;;;27.63;11.95;;;;;;;;;;5002201;28;20522;-72
2022/05/07 10:21:21;;;;;;;30.00;13.18;;;;;;;;;;5009704;28;20030;-72
2022/05/07 10:23:55;;;;;;;32.75;13.27;;;;;;;;;;5006405;28;20073;-71
2022/05/07 10:26:23;;;;;;;28.73;12.82;;;;;;;;;;5004850;28;20061;-72
2022/05/07 10:28:48;;;;;;;27.10;11.80;;;;;;;;;;5005705;28;20563;-72
2022/05/07 10:31:23;;;;;;;24.13;11.98;;;;;;;;;;5003156;28;20045;-72
2022/05/07 10:33:49;;;;;;;21.83;12.10;;;;;;;;;;5007005;28;20038;-72
2022/05/07 10:36:16;;;;;;;22.30;11.40;;;;;;;;;;5006577;28;20110;-72
2022/05/07 10:38:44;;;;;;;22.48;11.18;;;;;;;;;;5006343;28;20061;-72
2022/05/07 10:41:12;;;;;;;21.77;12.05;;;;;;;;;;5003198;28;20037;-72
2022/05/07 10:44:02;;;;;;;20.98;11.52;;;;;;;;;;5002842;28;20034;-72
2022/05/07 10:46:38;;;;;;;21.13;10.43;;;;;;;;;;5002034;28;20046;-72
2022/05/07 10:49:07;;;;;;;21.17;11.32;;;;;;;;;;5006418;28;20108;-72
2022/05/07 10:51:38;;;;;;;24.10;11.52;;;;;;;;;;4999332;28;20088;-72
2022/05/07 10:54:18;;;;;;;23.75;11.95;;;;;;;;;;5007035;28;20131;-72
2022/05/07 10:56:48;;;;;;;22.52;12.02;;;;;;;;;;4996645;28;20042;-71
2022/05/07 10:59:14;;;;;;;22.65;11.60;;;;;;;;;;5001140;28;20050;-72
2022/05/07 11:01:39;;;;;;;23.52;11.48;;;;;;;;;;5006494;28;20034;-71
2022/05/07 11:04:07;;;;;;;23.23;11.85;;;;;;;;;;5007083;28;20030;-72
2022/05/07 11:06:44;;;;;;;21.52;11.57;;;;;;;;;;5003213;28;20026;-71
2022/05/07 11:09:18;;;;;;;24.55;12.63;;;;;;;;;;5018315;28;20584;-72
2022/05/07 11:11:44;;;;;;;;;;;;;;;;;;5004187;28;20048;-72
2022/05/07 11:14:11;;;;;;;22.73;11.77;;;;;;;;;;5004573;28;19918;-72
2022/05/07 11:16:41;;;;;;;23.77;12.60;;;;;;;;;;4967112;28;20033;-71
2022/05/07 11:19:06;;;;;;;21.98;12.30;;;;;;;;;;4993750;28;20023;-72
2022/05/07 11:21:36;;;;;;;22.48;12.90;;;;;;;;;;5001496;28;20049;-72
2022/05/07 11:24:01;;;;;;;21.35;12.60;;;;;;;;;;5004774;28;20139;-72
2022/05/07 11:26:27;;;;;;;18.67;11.68;;;;;;;;;;5003585;28;20132;-72
2022/05/07 11:28:53;;;;;;;21.80;12.73;;;;;;;;;;5000006;28;20049;-72
2022/05/07 11:31:28;;;;;;;24.58;11.90;;;;;;;;;;4998616;28;20045;-72
2022/05/07 11:34:08;;;;;;;23.52;12.77;;;;;;;;;;5001026;28;20038;-72
2022/05/07 11:36:35;;;;;;;23.85;12.85;;;;;;;;;;4998949;28;20507;-72
2022/05/07 11:39:05;;;;;;;20.25;11.68;;;;;;;;;;5000665;28;20196;-71
2022/05/07 11:41:31;;;;;;;20.65;12.30;;;;;;;;;;5003661;28;20045;-72
2022/05/07 11:46:51;;;;;;;24.15;13.40;;;;;;;;;;5002999;28;20096;-72
2022/05/07 11:49:27;;;;;;;22.90;13.85;;;;;;;;;;5012466;28;20430;-69
2022/05/07 11:52:05;;;;;;;21.60;13.32;;;;;;;;;;5002436;28;20038;-71
2022/05/07 11:54:31;;;;;;;23.92;13.57;;;;;;;;;;4999234;28;20064;-72
2022/05/07 11:56:56;;;;;;;21.58;13.48;;;;;;;;;;5004030;28;20478;-71
2022/05/07 11:59:22;;;;;;;23.35;13.15;;;;;;;;;;4999970;28;20042;-71
2022/05/07 12:01:49;;;;;;;21.50;13.13;;;;;;;;;;5003077;28;20022;-71
2022/05/07 12:04:14;;;;;;;26.48;16.70;;;;;;;;;;5004698;28;20495;-71
2022/05/07 12:06:39;;;;;;;27.90;16.35;;;;;;;;;;5005590;28;20068;-70
2022/05/07 12:09:12;;;;;;;26.60;16.92;;;;;;;;;;4996480;28;20527;-70
2022/05/07 12:11:38;;;;;;;;;;;;;;;;;;5001142;28;20037;-71
2022/05/07 12:14:03;;;;;;;24.73;16.45;;;;;;;;;;4996399;28;19922;-70
2022/05/07 12:19:12;;;;;;;23.88;16.38;;;;;;;;;;5002046;28;20533;-70
2022/05/07 12:29:49;;;;;;;27.08;17.00;;;;;;;;;;4997706;28;20585;-70
2022/05/07 12:32:19;;;;;;;24.55;17.13;;;;;;;;;;4997595;28;20046;-70
2022/05/07 12:34:45;;;;;;;27.38;17.88;;;;;;;;;;5004287;28;20043;-70
2022/05/07 12:37:11;;;;;;;23.35;12.73;;;;;;;;;;5000441;28;20026;-70
2022/05/07 12:39:37;;;;;;;22.77;13.68;;;;;;;;;;5005245;28;20045;-70
2022/05/07 12:42:07;;;;;;;22.30;13.73;;;;;;;;;;5001809;28;20040;-70
2022/05/07 12:44:33;;;;;;;22.25;14.00;;;;;;;;;;5007833;28;20030;-70
2022/05/07 12:46:58;;;;;;;22.13;13.68;;;;;;;;;;5005189;28;20026;-70
2022/05/07 12:49:23;;;;;;;21.60;13.88;;;;;;;;;;5022715;28;20430;-71
2022/05/07 12:51:50;;;;;;;19.17;13.52;;;;;;;;;;5005634;28;20049;-70
2022/05/07 12:54:15;;;;;;;24.08;14.90;;;;;;;;;;5007854;28;20137;-70
2022/05/07 12:56:42;;;;;;;25.42;15.38;;;;;;;;;;5011474;28;20225;-71
2022/05/07 12:59:07;;;;;;;20.17;13.73;;;;;;;;;;5009725;28;20038;-70
2022/05/07 13:01:33;;;;;;;20.20;13.65;;;;;;;;;;5009024;28;20021;-70
2022/05/07 13:03:58;;;;;;;23.45;12.85;;;;;;;;;;4995399;28;20018;-70
2022/05/07 13:06:23;;;;;;;19.67;12.13;;;;;;;;;;5000394;28;20123;-70
2022/05/07 13:08:49;;;;;;;22.92;12.98;;;;;;;;;;5024573;28;20054;-70
2022/05/07 13:11:14;;;;;;;22.65;12.80;;;;;;;;;;5009790;28;20523;-70
2022/05/07 13:13:39;;;;;;;19.48;13.05;;;;;;;;;;5010007;28;20609;-70
2022/05/07 13:16:05;;;;;;;18.60;11.40;;;;;;;;;;5008668;28;20034;-71
2022/05/07 13:18:30;;;;;;;14.80;10.88;;;;;;;;;;5010515;28;20037;-70
2022/05/07 13:20:55;;;;;;;17.50;10.75;;;;;;;;;;5008524;28;20048;-70
2022/05/07 13:23:21;;;;;;;15.70;10.77;;;;;;;;;;5006885;28;20038;-70
2022/05/07 13:25:46;;;;;;;16.30;9.63;;;;;;;;;;5004096;28;20033;-70
2022/05/07 13:28:11;;;;;;;15.98;9.75;;;;;;;;;;5009983;28;20060;-72
2022/05/07 13:30:37;;;;;;;15.95;9.50;;;;;;;;;;4998358;28;20039;-70
2022/05/07 13:33:02;;;;;;;12.57;8.50;;;;;;;;;;5007790;28;20045;-70
2022/05/07 13:35:28;;;;;;;18.63;8.93;;;;;;;;;;5010112;28;20040;-70
2022/05/07 13:37:53;;;;;;;12.77;8.48;;;;;;;;;;5009440;28;20038;-70
2022/05/07 13:40:19;;;;;;;15.35;9.57;;;;;;;;;;5009954;28;20106;-70
2022/05/07 13:42:44;;;;;;;14.40;9.27;;;;;;;;;;5010149;28;20654;-70
2022/05/07 13:45:11;;;;;;;12.63;9.23;;;;;;;;;;5022246;28;20125;-70
2022/05/07 13:47:38;;;;;;;12.57;9.73;;;;;;;;;;4996000;28;20164;-70
2022/05/07 13:50:08;;;;;;;15.10;9.82;;;;;;;;;;4993551;28;20582;-70
2022/05/07 13:52:37;;;;;;;12.85;9.15;;;;;;;;;;5004643;28;20488;-70
2022/05/07 13:55:04;;;;;;;15.88;9.05;;;;;;;;;;5004667;28;20033;-70
2022/05/07 13:57:30;;;;;;;13.93;9.02;;;;;;;;;;5006781;28;20030;-70
2022/05/07 13:59:55;;;;;;;14.90;9.50;;;;;;;;;;5007997;28;20042;-70
2022/05/07 14:02:20;;;;;;;15.88;9.38;;;;;;;;;;5006858;28;20048;-70
2022/05/07 14:04:46;;;;;;;14.38;9.50;;;;;;;;;;5010191;28;20108;-70
2022/05/07 14:07:14;;;;;;;14.40;8.82;;;;;;;;;;5006813;28;20034;-70
2022/05/07 14:09:47;;;;;;;13.88;8.90;;;;;;;;;;5008810;28;20046;-70
2022/05/07 14:12:13;;;;;;;15.00;8.43;;;;;;;;;;5009382;28;20045;-70
2022/05/07 14:14:38;;;;;;;12.70;7.85;;;;;;;;;;5007538;28;20096;-70
2022/05/07 14:17:04;;;;;;;11.15;7.55;;;;;;;;;;5006101;28;20038;-70
2022/05/07 14:19:29;;;;;;;16.10;8.82;;;;;;;;;;5006936;28;20118;-70
2022/05/07 14:21:55;;;;;;;13.77;8.10;;;;;;;;;;5008560;28;20048;-70
2022/05/07 14:24:21;;;;;;;15.10;8.55;;;;;;;;;;5016731;28;20056;-69
2022/05/07 14:26:47;;;;;;;14.27;8.00;;;;;;;;;;5001344;28;20531;-70
2022/05/07 14:29:12;;;;;;;15.50;9.05;;;;;;;;;;5002944;28;20072;-70
2022/05/07 14:31:37;;;;;;;14.57;9.48;;;;;;;;;;5005193;28;20029;-69
2022/05/07 14:34:03;;;;;;;12.68;8.15;;;;;;;;;;5002943;28;20085;-70
2022/05/07 14:36:29;;;;;;;12.85;8.50;;;;;;;;;;5005408;28;20037;-70
2022/05/07 14:38:56;;;;;;;13.68;8.70;;;;;;;;;;5003665;28;20045;-70
2022/05/07 14:41:21;;;;;;;13.25;7.97;;;;;;;;;;5003268;28;20458;-70
2022/05/07 14:43:46;;;;;;;13.02;8.45;;;;;;;;;;5021339;28;20669;-70
2022/05/07 14:46:12;;;;;;;11.48;8.02;;;;;;;;;;5021740;28;20026;-70
2022/05/07 14:48:37;;;;;;;10.98;7.15;;;;;;;;;;5002332;28;20041;-70
2022/05/07 14:51:02;;;;;;;13.55;8.40;;;;;;;;;;5007628;28;20049;-70
2022/05/07 14:53:28;;;;;;;13.20;7.65;;;;;;;;;;5004072;28;20041;-70
2022/05/07 14:55:53;;;;;;;15.73;8.30;;;;;;;;;;5006123;28;20047;-70
2022/05/07 14:58:19;;;;;;;12.98;8.50;;;;;;;;;;5007537;28;20033;-70
2022/05/07 15:00:45;;;;;;;13.45;7.82;;;;;;;;;;5007172;28;20049;-70
2022/05/07 15:03:10;;;;;;;10.77;6.47;;;;;;;;;;5006065;28;20042;-70
2022/05/07 15:05:35;;;;;;;12.43;7.30;;;;;;;;;;5006606;28;20037;-70
2022/05/07 15:10:35;;;;;;;12.20;7.60;;;;;;;;;;5004882;28;20103;-70
2022/05/07 15:10:46;;;;;;;13.48;8.38;;;;;;;;;;5006416;28;21751;-70
2022/05/07 15:13:12;;;;;;;11.35;6.20;;;;;;;;;;5005806;28;20036;-70
2022/05/07 15:15:37;;;;;;;13.25;6.82;;;;;;;;;;5019674;28;20053;-70